sensor_id;sensor_type;location;lat;lon;timestamp;pressure;altitude;pressure_sealevel;temperature;humidity
42633;BME280;28261;53.304;-6.284;2023-07-24T00:01:08;100323.91;;;12.80;100.00
42633;BME280;28261;53.304;-6.284;2023-07-24T00:03:12;100319.53;;;12.79;100.00
42633;BME280;28261;53.304;-6.284;2023-07-24T00:05:16;100327.53;;;12.79;100.00
42633;BME280;28261;53.304;-6.284;2023-07-24T00:07:20;100319.53;;;12.79;100.00
42633;BME280;28261;53.304;-6.284;2023-07-24T00:09:24;100319.53;;;12.79;100.00
42633;BME280;28261;53.304;-6.284;2023-07-24T00:11:28;100316.19;;;12.77;100.00
42633;BME280;28261;53.304;-6.284;2023-07-24T00:13:31;100325.13;;;12.76;100.00
42633;BME280;28261;53.304;-6.284;2023-07-24T00:15:38;100318.25;;;12.74;100.00
42633;BME280;28261;53.304;-6.284;2023-07-24T00:17:42;100326.63;;;12.69;100.00
42633;BME280;28261;53.304;-6.284;2023-07-24T00:19:46;100330.38;;;12.66;100.00
42633;BME280;28261;53.304;-6.284;2023-07-24T00:21:50;100326.13;;;12.64;100.00
42633;BME280;28261;53.304;-6.284;2023-07-24T00:23:52;100323.63;;;12.62;100.00
42633;BME280;28261;53.304;-6.284;2023-07-24T00:25:56;100323.63;;;12.62;100.00
42633;BME280;28261;53.304;-6.284;2023-07-24T00:28:00;100331.84;;;12.59;100.00
42633;BME280;28261;53.304;-6.284;2023-07-24T00:30:05;100334.50;;;12.59;100.00
42633;BME280;28261;53.304;-6.284;2023-07-24T00:32:11;100331.97;;;12.58;100.00
42633;BME280;28261;53.304;-6.284;2023-07-24T00:34:15;100331.25;;;12.56;100.00
42633;BME280;28261;53.304;-6.284;2023-07-24T00:36:18;100328.84;;;12.52;100.00
42633;BME280;28261;53.304;-6.284;2023-07-24T00:38:22;100331.63;;;12.51;100.00
42633;BME280;28261;53.304;-6.284;2023-07-24T00:40:25;100331.03;;;12.47;100.00
42633;BME280;28261;53.304;-6.284;2023-07-24T00:42:29;100331.28;;;12.44;100.00
42633;BME280;28261;53.304;-6.284;2023-07-24T00:44:33;100330.69;;;12.41;100.00
42633;BME280;28261;53.304;-6.284;2023-07-24T00:46:37;100335.28;;;12.39;100.00
42633;BME280;28261;53.304;-6.284;2023-07-24T00:48:43;100343.38;;;12.37;100.00
42633;BME280;28261;53.304;-6.284;2023-07-24T00:50:47;100335.63;;;12.34;100.00
42633;BME280;28261;53.304;-6.284;2023-07-24T00:52:52;100344.59;;;12.33;100.00
42633;BME280;28261;53.304;-6.284;2023-07-24T00:54:55;100336.84;;;12.30;100.00
42633;BME280;28261;53.304;-6.284;2023-07-24T00:56:59;100343.25;;;12.27;100.00
42633;BME280;28261;53.304;-6.284;2023-07-24T00:59:03;100337.25;;;12.25;100.00
42633;BME280;28261;53.304;-6.284;2023-07-24T01:01:07;100338.19;;;12.24;100.00
42633;BME280;28261;53.304;-6.284;2023-07-24T01:03:12;100341.94;;;12.22;100.00
42633;BME280;28261;53.304;-6.284;2023-07-24T01:05:17;100348.34;;;12.19;100.00
42633;BME280;28261;53.304;-6.284;2023-07-24T01:07:21;100343.28;;;12.16;100.00
42633;BME280;28261;53.304;-6.284;2023-07-24T01:09:25;100340.75;;;12.14;100.00
42633;BME280;28261;53.304;-6.284;2023-07-24T01:11:31;100335.69;;;12.11;100.00
42633;BME280;28261;53.304;-6.284;2023-07-24T01:13:41;100342.94;;;12.09;100.00
42633;BME280;28261;53.304;-6.284;2023-07-24T01:15:55;100343.88;;;12.08;100.00
42633;BME280;28261;53.304;-6.284;2023-07-24T01:18:06;100337.75;;;12.08;100.00
42633;BME280;28261;53.304;-6.284;2023-07-24T01:20:11;100343.88;;;12.08;100.00
42633;BME280;28261;53.304;-6.284;2023-07-24T01:22:25;100347.53;;;12.07;100.00
42633;BME280;28261;53.304;-6.284;2023-07-24T01:24:43;100346.53;;;12.08;100.00
42633;BME280;28261;53.304;-6.284;2023-07-24T01:26:52;100344.88;;;12.07;100.00
42633;BME280;28261;53.304;-6.284;2023-07-24T01:28:56;100346.66;;;12.07;100.00
42633;BME280;28261;53.304;-6.284;2023-07-24T01:31:00;100340.53;;;12.06;100.00
42633;BME280;28261;53.304;-6.284;2023-07-24T01:33:03;100345.84;;;12.06;100.00
42633;BME280;28261;53.304;-6.284;2023-07-24T01:35:08;100353.94;;;12.05;100.00
42633;BME280;28261;53.304;-6.284;2023-07-24T01:37:12;100348.75;;;12.03;100.00
42633;BME280;28261;53.304;-6.284;2023-07-24T01:39:17;100355.84;;;12.02;100.00
42633;BME280;28261;53.304;-6.284;2023-07-24T01:41:21;100349.81;;;12.00;100.00
42633;BME280;28261;53.304;-6.284;2023-07-24T01:43:28;100361.41;;;11.99;100.00
42633;BME280;28261;53.304;-6.284;2023-07-24T01:45:31;100365.16;;;11.97;100.00
42633;BME280;28261;53.304;-6.284;2023-07-24T01:47:34;100362.72;;;11.94;100.00
42633;BME280;28261;53.304;-6.284;2023-07-24T01:49:38;100362.84;;;11.92;100.00
42633;BME280;28261;53.304;-6.284;2023-07-24T01:51:42;100360.31;;;11.91;100.00
42633;BME280;28261;53.304;-6.284;2023-07-24T01:53:45;100365.84;;;11.88;100.00
42633;BME280;28261;53.304;-6.284;2023-07-24T01:55:48;100367.78;;;11.85;100.00
42633;BME280;28261;53.304;-6.284;2023-07-24T01:57:52;100361.59;;;11.85;100.00
42633;BME280;28261;53.304;-6.284;2023-07-24T01:59:57;100371.41;;;11.84;100.00
42633;BME280;28261;53.304;-6.284;2023-07-24T02:02:00;100369.81;;;11.82;100.00
42633;BME280;28261;53.304;-6.284;2023-07-24T02:04:05;100369.94;;;11.80;100.00
42633;BME280;28261;53.304;-6.284;2023-07-24T02:06:08;100364.88;;;11.77;100.00
42633;BME280;28261;53.304;-6.284;2023-07-24T02:08:11;100365.97;;;11.75;100.00
42633;BME280;28261;53.304;-6.284;2023-07-24T02:10:15;100368.75;;;11.73;100.00
42633;BME280;28261;53.304;-6.284;2023-07-24T02:12:17;100375.97;;;11.71;100.00
42633;BME280;28261;53.304;-6.284;2023-07-24T02:14:20;100370.06;;;11.67;100.00
42633;BME280;28261;53.304;-6.284;2023-07-24T02:16:25;100371.16;;;11.65;100.00
42633;BME280;28261;53.304;-6.284;2023-07-24T02:18:30;100370.28;;;11.64;100.00
42633;BME280;28261;53.304;-6.284;2023-07-24T02:20:33;100371.28;;;11.63;100.00
42633;BME280;28261;53.304;-6.284;2023-07-24T02:22:36;100373.94;;;11.63;100.00
42633;BME280;28261;53.304;-6.284;2023-07-24T02:24:40;100373.06;;;11.63;100.00
42633;BME280;28261;53.304;-6.284;2023-07-24T02:26:43;100368.25;;;11.57;100.00
42633;BME280;28261;53.304;-6.284;2023-07-24T02:28:47;100372.81;;;11.55;100.00
42633;BME280;28261;53.304;-6.284;2023-07-24T02:30:50;100373.56;;;11.57;100.00
42633;BME280;28261;53.304;-6.284;2023-07-24T02:32:55;100375.25;;;11.58;100.00
42633;BME280;28261;53.304;-6.284;2023-07-24T02:34:59;100375.00;;;11.61;100.00
42633;BME280;28261;53.304;-6.284;2023-07-24T02:37:01;100378.38;;;11.63;100.00
42633;BME280;28261;53.304;-6.284;2023-07-24T02:39:04;100374.75;;;11.64;100.00
42633;BME280;28261;53.304;-6.284;2023-07-24T02:41:08;100379.13;;;11.65;100.00
42633;BME280;28261;53.304;-6.284;2023-07-24T02:43:11;100388.78;;;11.66;100.00
42633;BME280;28261;53.304;-6.284;2023-07-24T02:45:15;100387.66;;;11.68;100.00
42633;BME280;28261;53.304;-6.284;2023-07-24T02:47:18;100391.06;;;11.71;100.00
42633;BME280;28261;53.304;-6.284;2023-07-24T02:49:22;100387.47;;;11.72;100.00
42633;BME280;28261;53.304;-6.284;2023-07-24T02:51:26;100388.28;;;11.72;100.00
42633;BME280;28261;53.304;-6.284;2023-07-24T02:53:29;100385.63;;;11.72;100.00
42633;BME280;28261;53.304;-6.284;2023-07-24T02:55:33;100389.13;;;11.73;100.00
42633;BME280;28261;53.304;-6.284;2023-07-24T02:57:36;100389.13;;;11.73;100.00
42633;BME280;28261;53.304;-6.284;2023-07-24T02:59:39;100390.00;;;11.73;100.00
42633;BME280;28261;53.304;-6.284;2023-07-24T03:01:43;100389.13;;;11.73;100.00
42633;BME280;28261;53.304;-6.284;2023-07-24T03:03:46;100389.13;;;11.73;100.00
42633;BME280;28261;53.304;-6.284;2023-07-24T03:05:52;100389.88;;;11.75;100.00
42633;BME280;28261;53.304;-6.284;2023-07-24T03:07:55;100388.16;;;11.74;100.00
42633;BME280;28261;53.304;-6.284;2023-07-24T03:09:59;100390.81;;;11.74;100.00
42633;BME280;28261;53.304;-6.284;2023-07-24T03:12:02;100390.81;;;11.74;100.00
42633;BME280;28261;53.304;-6.284;2023-07-24T03:14:06;100387.34;;;11.73;100.00
42633;BME280;28261;53.304;-6.284;2023-07-24T03:16:09;100393.59;;;11.72;100.00
42633;BME280;28261;53.304;-6.284;2023-07-24T03:18:13;100390.94;;;11.72;100.00
42633;BME280;28261;53.304;-6.284;2023-07-24T03:20:17;100389.25;;;11.71;100.00
42633;BME280;28261;53.304;-6.284;2023-07-24T03:22:22;100394.69;;;11.69;100.00
42633;BME280;28261;53.304;-6.284;2023-07-24T03:24:25;100392.03;;;11.69;100.00
42633;BME280;28261;53.304;-6.284;2023-07-24T03:26:29;100399.88;;;11.71;100.00
42633;BME280;28261;53.304;-6.284;2023-07-24T03:28:33;100399.16;;;11.69;100.00
42633;BME280;28261;53.304;-6.284;2023-07-24T03:30:37;100394.81;;;11.68;100.00
42633;BME280;28261;53.304;-6.284;2023-07-24T03:32:40;100405.53;;;11.66;100.00
42633;BME280;28261;53.304;-6.284;2023-07-24T03:34:43;100401.31;;;11.64;100.00
42633;BME280;28261;53.304;-6.284;2023-07-24T03:36:47;100404.91;;;11.63;100.00
42633;BME280;28261;53.304;-6.284;2023-07-24T03:38:51;100409.63;;;11.59;100.00
42633;BME280;28261;53.304;-6.284;2023-07-24T03:40:55;100409.75;;;11.58;100.00
42633;BME280;28261;53.304;-6.284;2023-07-24T03:42:59;100413.38;;;11.57;100.00
42633;BME280;28261;53.304;-6.284;2023-07-24T03:45:03;100411.66;;;11.56;100.00
42633;BME280;28261;53.304;-6.284;2023-07-24T03:47:06;100409.97;;;11.55;100.00
42633;BME280;28261;53.304;-6.284;2023-07-24T03:49:10;100419.00;;;11.52;100.00
42633;BME280;28261;53.304;-6.284;2023-07-24T03:51:13;100423.59;;;11.50;100.00
42633;BME280;28261;53.304;-6.284;2023-07-24T03:53:17;100424.56;;;11.49;100.00
42633;BME280;28261;53.304;-6.284;2023-07-24T03:55:20;100428.28;;;11.46;100.00
42633;BME280;28261;53.304;-6.284;2023-07-24T03:57:23;100425.88;;;11.43;100.00
42633;BME280;28261;53.304;-6.284;2023-07-24T03:59:27;100431.19;;;11.43;100.00
42633;BME280;28261;53.304;-6.284;2023-07-24T04:01:30;100434.78;;;11.42;100.00
42633;BME280;28261;53.304;-6.284;2023-07-24T04:03:33;100431.19;;;11.43;100.00
42633;BME280;28261;53.304;-6.284;2023-07-24T04:05:37;100433.72;;;11.45;100.00
42633;BME280;28261;53.304;-6.284;2023-07-24T04:07:40;100435.53;;;11.44;100.00
42633;BME280;28261;53.304;-6.284;2023-07-24T04:09:44;100431.91;;;11.45;100.00
42633;BME280;28261;53.304;-6.284;2023-07-24T04:11:48;100436.25;;;11.46;100.00
42633;BME280;28261;53.304;-6.284;2023-07-24T04:13:52;100436.38;;;11.45;100.00
42633;BME280;28261;53.304;-6.284;2023-07-24T04:15:55;100438.19;;;11.44;100.00
42633;BME280;28261;53.304;-6.284;2023-07-24T04:17:59;100440.84;;;11.44;100.00
42633;BME280;28261;53.304;-6.284;2023-07-24T04:20:03;100449.03;;;11.41;100.00
42633;BME280;28261;53.304;-6.284;2023-07-24T04:22:06;100442.03;;;11.40;100.00
42633;BME280;28261;53.304;-6.284;2023-07-24T04:24:10;100444.69;;;11.40;100.00
42633;BME280;28261;53.304;-6.284;2023-07-24T04:26:13;100447.22;;;11.42;100.00
42633;BME280;28261;53.304;-6.284;2023-07-24T04:28:18;100452.41;;;11.43;100.00
42633;BME280;28261;53.304;-6.284;2023-07-24T04:30:21;100447.09;;;11.43;100.00
42633;BME280;28261;53.304;-6.284;2023-07-24T04:32:26;100452.41;;;11.43;100.00
42633;BME280;28261;53.304;-6.284;2023-07-24T04:34:29;100447.94;;;11.44;100.00
42633;BME280;28261;53.304;-6.284;2023-07-24T04:36:34;100453.88;;;11.47;100.00
42633;BME280;28261;53.304;-6.284;2023-07-24T04:38:38;100460.88;;;11.48;100.00
42633;BME280;28261;53.304;-6.284;2023-07-24T04:40:43;100456.53;;;11.47;100.00
42633;BME280;28261;53.304;-6.284;2023-07-24T04:42:47;100457.38;;;11.48;100.00
42633;BME280;28261;53.304;-6.284;2023-07-24T04:44:51;100461.72;;;11.49;100.00
42633;BME280;28261;53.304;-6.284;2023-07-24T04:46:55;100464.13;;;11.52;100.00
42633;BME280;28261;53.304;-6.284;2023-07-24T04:48:58;100463.19;;;11.53;100.00
42633;BME280;28261;53.304;-6.284;2023-07-24T04:51:00;100464.03;;;11.54;100.00
42633;BME280;28261;53.304;-6.284;2023-07-24T04:53:04;100463.06;;;11.55;100.00
42633;BME280;28261;53.304;-6.284;2023-07-24T04:55:07;100476.22;;;11.56;100.00
42633;BME280;28261;53.304;-6.284;2023-07-24T04:57:10;100467.41;;;11.56;100.00
42633;BME280;28261;53.304;-6.284;2023-07-24T04:59:14;100474.31;;;11.58;100.00
42633;BME280;28261;53.304;-6.284;2023-07-24T05:01:18;100475.78;;;11.62;100.00
42633;BME280;28261;53.304;-6.284;2023-07-24T05:03:22;100480.97;;;11.64;100.00
42633;BME280;28261;53.304;-6.284;2023-07-24T05:05:25;100479.06;;;11.66;100.00
42633;BME280;28261;53.304;-6.284;2023-07-24T05:07:28;100481.59;;;11.67;100.00
42633;BME280;28261;53.304;-6.284;2023-07-24T05:09:32;100481.47;;;11.69;100.00
42633;BME280;28261;53.304;-6.284;2023-07-24T05:11:35;100484.84;;;11.71;100.00
42633;BME280;28261;53.304;-6.284;2023-07-24T05:13:38;100487.28;;;11.74;100.00
42633;BME280;28261;53.304;-6.284;2023-07-24T05:15:42;100489.81;;;11.76;100.00
42633;BME280;28261;53.304;-6.284;2023-07-24T05:17:46;100488.84;;;11.77;100.00
42633;BME280;28261;53.304;-6.284;2023-07-24T05:19:50;100489.56;;;11.79;100.00
42633;BME280;28261;53.304;-6.284;2023-07-24T05:21:53;100489.34;;;11.82;100.00
42633;BME280;28261;53.304;-6.284;2023-07-24T05:23:56;100495.28;;;11.85;100.00
42633;BME280;28261;53.304;-6.284;2023-07-24T05:26:01;100499.38;;;11.90;100.00
42633;BME280;28261;53.304;-6.284;2023-07-24T05:28:04;100499.16;;;11.93;100.00
42633;BME280;28261;53.304;-6.284;2023-07-24T05:30:08;100498.84;;;11.97;100.00
42633;BME280;28261;53.304;-6.284;2023-07-24T05:32:11;100496.78;;;12.01;100.00
42633;BME280;28261;53.304;-6.284;2023-07-24T05:34:15;100499.81;;;12.08;100.00
42633;BME280;28261;53.304;-6.284;2023-07-24T05:36:18;100496.06;;;12.10;100.00
42633;BME280;28261;53.304;-6.284;2023-07-24T05:38:22;100509.38;;;12.22;100.00
42633;BME280;28261;53.304;-6.284;2023-07-24T05:40:25;100509.91;;;12.49;100.00
42633;BME280;28261;53.304;-6.284;2023-07-24T05:42:30;100500.94;;;12.73;100.00
42633;BME280;28261;53.304;-6.284;2023-07-24T05:44:33;100504.53;;;12.83;100.00
42633;BME280;28261;53.304;-6.284;2023-07-24T05:46:39;100506.22;;;12.84;100.00
42633;BME280;28261;53.304;-6.284;2023-07-24T05:48:42;100506.22;;;12.84;100.00
42633;BME280;28261;53.304;-6.284;2023-07-24T05:50:46;100508.06;;;12.84;100.00
42633;BME280;28261;53.304;-6.284;2023-07-24T05:52:50;100513.50;;;12.82;100.00
42633;BME280;28261;53.304;-6.284;2023-07-24T05:54:53;100510.97;;;12.81;100.00
42633;BME280;28261;53.304;-6.284;2023-07-24T05:56:57;100520.25;;;12.75;100.00
42633;BME280;28261;53.304;-6.284;2023-07-24T05:59:00;100522.47;;;12.70;100.00
42633;BME280;28261;53.304;-6.284;2023-07-24T06:01:04;100522.69;;;12.67;100.00
42633;BME280;28261;53.304;-6.284;2023-07-24T06:03:10;100521.59;;;12.69;100.00
42633;BME280;28261;53.304;-6.284;2023-07-24T06:05:13;100525.00;;;12.72;100.00
42633;BME280;28261;53.304;-6.284;2023-07-24T06:07:18;100513.13;;;12.76;100.00
42633;BME280;28261;53.304;-6.284;2023-07-24T06:09:21;100524.28;;;12.81;100.00
42633;BME280;28261;53.304;-6.284;2023-07-24T06:11:25;100519.97;;;13.01;100.00
42633;BME280;28261;53.304;-6.284;2023-07-24T06:13:29;100519.44;;;13.95;100.00
42633;BME280;28261;53.304;-6.284;2023-07-24T06:15:32;100515.47;;;15.22;100.00
42633;BME280;28261;53.304;-6.284;2023-07-24T06:17:36;100513.69;;;16.49;100.00
42633;BME280;28261;53.304;-6.284;2023-07-24T06:19:39;100523.03;;;17.28;100.00
42633;BME280;28261;53.304;-6.284;2023-07-24T06:21:42;100520.88;;;17.32;96.88
42633;BME280;28261;53.304;-6.284;2023-07-24T06:23:47;100525.69;;;17.10;97.56
42633;BME280;28261;53.304;-6.284;2023-07-24T06:25:50;100517.34;;;16.85;97.96
42633;BME280;28261;53.304;-6.284;2023-07-24T06:27:54;100526.31;;;16.56;99.56
42633;BME280;28261;53.304;-6.284;2023-07-24T06:29:58;100532.47;;;16.29;100.00
42633;BME280;28261;53.304;-6.284;2023-07-24T06:32:15;100529.56;;;16.03;100.00
42633;BME280;28261;53.304;-6.284;2023-07-24T06:34:18;100539.47;;;15.83;100.00
42633;BME280;28261;53.304;-6.284;2023-07-24T06:36:22;100535.78;;;15.64;100.00
42633;BME280;28261;53.304;-6.284;2023-07-24T06:38:25;100529.03;;;15.50;100.00
42633;BME280;28261;53.304;-6.284;2023-07-24T06:40:29;100532.25;;;15.44;100.00
42633;BME280;28261;53.304;-6.284;2023-07-24T06:42:32;100530.16;;;15.38;100.00
42633;BME280;28261;53.304;-6.284;2023-07-24T06:44:36;100523.66;;;15.31;100.00
42633;BME280;28261;53.304;-6.284;2023-07-24T06:46:39;100522.53;;;15.23;100.00
42633;BME280;28261;53.304;-6.284;2023-07-24T06:48:42;100528.44;;;15.17;100.00
42633;BME280;28261;53.304;-6.284;2023-07-24T06:50:46;100537.69;;;15.13;100.00
42633;BME280;28261;53.304;-6.284;2023-07-24T06:52:49;100528.28;;;15.09;100.00
42633;BME280;28261;53.304;-6.284;2023-07-24T06:54:53;100531.47;;;15.03;100.00
42633;BME280;28261;53.304;-6.284;2023-07-24T06:56:58;100537.09;;;15.00;100.00
42633;BME280;28261;53.304;-6.284;2023-07-24T06:59:01;100541.00;;;14.96;100.00
42633;BME280;28261;53.304;-6.284;2023-07-24T07:01:05;100539.16;;;14.86;100.00
42633;BME280;28261;53.304;-6.284;2023-07-24T07:03:09;100546.28;;;14.76;100.00
42633;BME280;28261;53.304;-6.284;2023-07-24T07:05:13;100543.03;;;14.72;100.00
42633;BME280;28261;53.304;-6.284;2023-07-24T07:07:16;100546.81;;;14.70;100.00
42633;BME280;28261;53.304;-6.284;2023-07-24T07:09:19;100546.81;;;14.70;100.00
42633;BME280;28261;53.304;-6.284;2023-07-24T07:11:23;100540.94;;;14.76;100.00
42633;BME280;28261;53.304;-6.284;2023-07-24T07:13:28;100547.31;;;14.85;100.00
42633;BME280;28261;53.304;-6.284;2023-07-24T07:15:31;100549.47;;;15.01;100.00
42633;BME280;28261;53.304;-6.284;2023-07-24T07:17:34;100551.19;;;15.21;100.00
42633;BME280;28261;53.304;-6.284;2023-07-24T07:19:38;100552.91;;;15.42;100.00
42633;BME280;28261;53.304;-6.284;2023-07-24T07:21:41;100554.31;;;15.76;100.00
42633;BME280;28261;53.304;-6.284;2023-07-24T07:23:45;100556.97;;;16.34;98.03
42633;BME280;28261;53.304;-6.284;2023-07-24T07:25:48;100550.69;;;17.01;94.28
42633;BME280;28261;53.304;-6.284;2023-07-24T07:27:52;100551.13;;;17.24;91.72
42633;BME280;28261;53.304;-6.284;2023-07-24T07:29:57;100550.16;;;17.43;92.01
42633;BME280;28261;53.304;-6.284;2023-07-24T07:31:59;100556.56;;;17.50;90.66
42633;BME280;28261;53.304;-6.284;2023-07-24T07:34:02;100559.09;;;17.34;91.51
42633;BME280;28261;53.304;-6.284;2023-07-24T07:36:06;100554.84;;;17.13;93.26
42633;BME280;28261;53.304;-6.284;2023-07-24T07:38:09;100555.72;;;17.04;93.72
42633;BME280;28261;53.304;-6.284;2023-07-24T07:40:12;100553.78;;;17.24;93.22
42633;BME280;28261;53.304;-6.284;2023-07-24T07:42:16;100555.34;;;17.45;90.62
42633;BME280;28261;53.304;-6.284;2023-07-24T07:44:20;100559.09;;;17.52;90.99
42633;BME280;28261;53.304;-6.284;2023-07-24T07:46:24;100568.38;;;17.57;88.75
42633;BME280;28261;53.304;-6.284;2023-07-24T07:48:27;100568.09;;;17.61;87.66
42633;BME280;28261;53.304;-6.284;2023-07-24T07:50:31;100570.06;;;17.58;87.98
42633;BME280;28261;53.304;-6.284;2023-07-24T07:52:34;100570.13;;;17.49;86.91
42633;BME280;28261;53.304;-6.284;2023-07-24T07:54:37;100576.53;;;17.38;86.89
42633;BME280;28261;53.304;-6.284;2023-07-24T07:56:41;100573.63;;;17.31;87.32
42633;BME280;28261;53.304;-6.284;2023-07-24T07:58:45;100573.91;;;17.10;87.28
42633;BME280;28261;53.304;-6.284;2023-07-24T08:00:48;100572.88;;;17.11;86.79
42633;BME280;28261;53.304;-6.284;2023-07-24T08:02:53;100574.19;;;17.07;86.21
42633;BME280;28261;53.304;-6.284;2023-07-24T08:04:56;100574.63;;;17.02;85.55
42633;BME280;28261;53.304;-6.284;2023-07-24T08:07:09;100573.00;;;16.91;85.30
42633;BME280;28261;53.304;-6.284;2023-07-24T08:09:13;100574.25;;;16.87;85.72
42633;BME280;28261;53.304;-6.284;2023-07-24T08:11:16;100571.59;;;17.43;82.76
42633;BME280;28261;53.304;-6.284;2023-07-24T08:13:19;100571.59;;;18.15;80.26
42633;BME280;28261;53.304;-6.284;2023-07-24T08:15:23;100576.00;;;18.77;76.55
42633;BME280;28261;53.304;-6.284;2023-07-24T08:17:26;100575.16;;;19.11;74.43
42633;BME280;28261;53.304;-6.284;2023-07-24T08:19:31;100581.47;;;19.53;72.73
42633;BME280;28261;53.304;-6.284;2023-07-24T08:21:34;100586.28;;;19.92;71.19
42633;BME280;28261;53.304;-6.284;2023-07-24T08:23:39;100590.13;;;20.22;70.54
42633;BME280;28261;53.304;-6.284;2023-07-24T08:25:51;100585.16;;;20.67;68.89
42633;BME280;28261;53.304;-6.284;2023-07-24T08:27:54;100584.31;;;20.83;66.02
42633;BME280;28261;53.304;-6.284;2023-07-24T08:30:07;100586.84;;;20.85;65.21
42633;BME280;28261;53.304;-6.284;2023-07-24T08:32:10;100586.00;;;20.68;65.71
42633;BME280;28261;53.304;-6.284;2023-07-24T08:34:15;100581.03;;;20.40;66.17
42633;BME280;28261;53.304;-6.284;2023-07-24T08:36:20;100585.44;;;20.16;66.59
42633;BME280;28261;53.304;-6.284;2023-07-24T08:38:23;100593.13;;;19.70;68.14
42633;BME280;28261;53.304;-6.284;2023-07-24T08:40:27;100588.25;;;19.14;68.50
42633;BME280;28261;53.304;-6.284;2023-07-24T08:42:32;100591.28;;;18.50;69.82
42633;BME280;28261;53.304;-6.284;2023-07-24T08:44:36;100591.56;;;17.85;70.24
42633;BME280;28261;53.304;-6.284;2023-07-24T08:46:41;100596.38;;;17.45;71.05
42633;BME280;28261;53.304;-6.284;2023-07-24T08:48:48;100599.59;;;17.31;71.36
42633;BME280;28261;53.304;-6.284;2023-07-24T08:50:52;100599.34;;;17.24;70.72
42633;BME280;28261;53.304;-6.284;2023-07-24T08:52:57;100601.56;;;17.29;70.38
42633;BME280;28261;53.304;-6.284;2023-07-24T08:55:02;100603.94;;;17.32;69.98
42633;BME280;28261;53.304;-6.284;2023-07-24T08:57:08;100604.63;;;17.34;68.58
42633;BME280;28261;53.304;-6.284;2023-07-24T08:59:12;100602.41;;;17.29;68.37
42633;BME280;28261;53.304;-6.284;2023-07-24T09:01:16;100600.47;;;17.21;67.48
42633;BME280;28261;53.304;-6.284;2023-07-24T09:03:21;100604.19;;;17.11;69.10
42633;BME280;28261;53.304;-6.284;2023-07-24T09:05:25;100605.94;;;17.02;68.40
42633;BME280;28261;53.304;-6.284;2023-07-24T09:07:30;100609.50;;;16.83;68.20
42633;BME280;28261;53.304;-6.284;2023-07-24T09:09:35;100602.22;;;16.65;68.18
42633;BME280;28261;53.304;-6.284;2023-07-24T09:11:46;100611.97;;;16.56;68.97
42633;BME280;28261;53.304;-6.284;2023-07-24T09:13:50;100607.88;;;16.52;69.31
42633;BME280;28261;53.304;-6.284;2023-07-24T09:15:57;100615.91;;;16.52;70.09
42633;BME280;28261;53.304;-6.284;2023-07-24T09:18:01;100604.22;;;16.53;68.69
42633;BME280;28261;53.304;-6.284;2023-07-24T09:20:07;100612.53;;;16.60;66.69
42633;BME280;28261;53.304;-6.284;2023-07-24T09:22:12;100610.69;;;16.70;65.92
42633;BME280;28261;53.304;-6.284;2023-07-24T09:24:17;100611.06;;;16.85;64.84
42633;BME280;28261;53.304;-6.284;2023-07-24T09:26:23;100610.75;;;16.98;64.95
42633;BME280;28261;53.304;-6.284;2023-07-24T09:28:27;100610.38;;;17.11;64.90
42633;BME280;28261;53.304;-6.284;2023-07-24T09:30:31;100610.88;;;17.24;64.47
42633;BME280;28261;53.304;-6.284;2023-07-24T09:32:34;100612.59;;;17.25;64.71
42633;BME280;28261;53.304;-6.284;2023-07-24T09:34:42;100613.25;;;17.28;64.82
42633;BME280;28261;53.304;-6.284;2023-07-24T09:36:46;100620.91;;;17.22;65.15
42633;BME280;28261;53.304;-6.284;2023-07-24T09:39:00;100616.94;;;17.27;65.24
42633;BME280;28261;53.304;-6.284;2023-07-24T09:41:06;100609.59;;;17.29;65.21
42633;BME280;28261;53.304;-6.284;2023-07-24T09:43:17;100616.03;;;17.36;63.60
42633;BME280;28261;53.304;-6.284;2023-07-24T09:45:40;100611.94;;;17.41;62.85
42633;BME280;28261;53.304;-6.284;2023-07-24T09:47:47;100604.13;;;17.20;63.29
42633;BME280;28261;53.304;-6.284;2023-07-24T09:50:00;100613.38;;;17.08;63.56
42633;BME280;28261;53.304;-6.284;2023-07-24T09:52:09;100609.84;;;17.07;62.89
42633;BME280;28261;53.304;-6.284;2023-07-24T09:54:15;100605.59;;;17.15;62.81
42633;BME280;28261;53.304;-6.284;2023-07-24T09:56:25;100610.56;;;17.28;61.90
42633;BME280;28261;53.304;-6.284;2023-07-24T09:58:52;100613.91;;;17.39;62.23
42633;BME280;28261;53.304;-6.284;2023-07-24T10:00:58;100607.41;;;17.42;61.90
42633;BME280;28261;53.304;-6.284;2023-07-24T10:03:02;100610.88;;;17.52;62.30
42633;BME280;28261;53.304;-6.284;2023-07-24T10:05:06;100611.09;;;17.59;62.09
42633;BME280;28261;53.304;-6.284;2023-07-24T10:07:11;100608.88;;;17.72;62.49
42633;BME280;28261;53.304;-6.284;2023-07-24T10:09:15;100614.25;;;17.72;62.55
42633;BME280;28261;53.304;-6.284;2023-07-24T10:11:21;100612.72;;;17.70;62.46
42633;BME280;28261;53.304;-6.284;2023-07-24T10:13:26;100614.88;;;17.66;62.61
42633;BME280;28261;53.304;-6.284;2023-07-24T10:15:32;100616.00;;;17.64;62.65
42633;BME280;28261;53.304;-6.284;2023-07-24T10:17:36;100610.97;;;17.61;63.30
42633;BME280;28261;53.304;-6.284;2023-07-24T10:19:41;100620.31;;;17.56;63.54
42633;BME280;28261;53.304;-6.284;2023-07-24T10:21:46;100615.53;;;17.50;64.05
42633;BME280;28261;53.304;-6.284;2023-07-24T10:23:49;100619.81;;;17.43;65.44
42633;BME280;28261;53.304;-6.284;2023-07-24T10:25:53;100615.91;;;17.37;65.39
42633;BME280;28261;53.304;-6.284;2023-07-24T10:28:01;100620.22;;;17.20;66.47
42633;BME280;28261;53.304;-6.284;2023-07-24T10:30:05;100619.31;;;17.30;66.37
42633;BME280;28261;53.304;-6.284;2023-07-24T10:32:30;100621.19;;;17.47;65.35
42633;BME280;28261;53.304;-6.284;2023-07-24T10:34:38;100612.09;;;17.58;65.12
42633;BME280;28261;53.304;-6.284;2023-07-24T10:36:42;100605.88;;;17.75;65.05